createdAt,value
2022-09-05T00:00:34.364Z,2.60
2022-09-05T00:03:44.000Z,2.30
2022-09-05T00:06:13.565Z,2.60
2022-09-05T00:11:59.921Z,2.70
2022-09-05T00:24:17.447Z,2.80
2022-09-05T00:26:56.865Z,2.50
2022-09-05T00:34:01.419Z,2.37
2022-09-05T00:39:12.749Z,2.17
2022-09-05T00:41:41.181Z,1.93
2022-09-05T00:44:13.069Z,2.80
2022-09-05T00:46:58.746Z,2.30
2022-09-05T00:49:39.333Z,2.47
2022-09-05T00:53:07.601Z,2.33
2022-09-05T00:56:57.185Z,2.40
2022-09-05T01:00:19.248Z,2.23
2022-09-05T01:07:52.175Z,2.33
2022-09-05T01:10:53.201Z,2.40
2022-09-05T01:17:29.606Z,2.33
2022-09-05T01:20:46.836Z,2.10
2022-09-05T01:29:12.876Z,2.00
2022-09-05T01:35:19.707Z,2.30
2022-09-05T01:40:25.600Z,2.53
2022-09-05T01:45:50.732Z,2.00
2022-09-05T01:51:29.367Z,2.60
2022-09-05T01:54:46.764Z,2.47
2022-09-05T02:00:24.376Z,2.17
2022-09-05T02:05:47.622Z,2.20
2022-09-05T02:12:40.413Z,2.20
2022-09-05T02:15:24.600Z,2.07
2022-09-05T02:17:57.984Z,1.80
2022-09-05T02:20:55.414Z,1.90
2022-09-05T02:26:01.134Z,1.70
2022-09-05T02:29:42.489Z,1.63
2022-09-05T02:32:31.650Z,2.10
2022-09-05T02:37:02.841Z,2.07
2022-09-05T02:45:01.853Z,1.97
2022-09-05T02:47:48.394Z,2.10
2022-09-05T02:57:25.576Z,1.93
2022-09-05T03:01:02.964Z,1.87
2022-09-05T03:04:10.161Z,1.90
2022-09-05T03:08:55.861Z,2.10
2022-09-05T03:17:14.210Z,2.10
2022-09-05T03:21:09.303Z,2.17
2022-09-05T03:27:17.558Z,2.20
2022-09-05T03:30:18.428Z,1.93
2022-09-05T03:35:43.158Z,2.10
2022-09-05T03:39:21.932Z,1.80
2022-09-05T03:46:02.201Z,2.60
2022-09-05T03:57:10.710Z,2.67
2022-09-05T03:59:23.940Z,2.30
2022-09-05T04:07:45.781Z,2.17
2022-09-05T04:08:15.465Z,2.00
2022-09-05T04:11:27.171Z,1.97
2022-09-05T04:14:04.935Z,1.90
2022-09-05T04:16:48.182Z,2.30
2022-09-05T04:21:47.675Z,1.80
2022-09-05T04:29:14.256Z,2.27
2022-09-05T04:33:47.228Z,1.70
2022-09-05T04:36:59.837Z,2.10
2022-09-05T04:39:28.139Z,2.37
2022-09-05T04:42:23.831Z,2.20
2022-09-05T04:45:06.472Z,2.03
2022-09-05T04:47:43.040Z,2.00
2022-09-05T04:50:23.647Z,1.90
2022-09-05T04:55:27.381Z,2.00
2022-09-05T04:58:23.857Z,2.40
2022-09-05T05:06:04.287Z,2.30
2022-09-05T05:06:49.394Z,2.30
2022-09-05T05:09:45.330Z,2.60
2022-09-05T05:18:10.551Z,2.57
2022-09-05T05:20:40.784Z,1.90
2022-09-05T05:23:16.184Z,2.20
2022-09-05T05:25:56.674Z,2.60
2022-09-05T05:30:32.252Z,3.60
2022-09-05T05:34:31.955Z,2.97
2022-09-05T05:39:59.769Z,3.20
2022-09-05T05:42:26.323Z,3.30
2022-09-05T05:44:58.521Z,2.90
2022-09-05T05:47:44.630Z,2.70
2022-09-05T05:50:43.500Z,3.55
2022-09-05T05:56:34.609Z,1.92
2022-09-05T06:05:03.094Z,2.40
2022-09-05T06:15:01.179Z,2.50
2022-09-05T06:22:32.246Z,2.97
2022-09-05T06:27:31.782Z,3.10
2022-09-05T06:30:08.126Z,3.05
2022-09-05T06:35:52.791Z,2.85
2022-09-05T06:44:08.367Z,2.70
2022-09-05T06:47:05.841Z,2.78
2022-09-05T06:50:26.721Z,2.92
2022-09-05T06:55:58.392Z,3.17
2022-09-05T06:59:14.767Z,3.00
2022-09-05T07:05:44.900Z,2.47
2022-09-05T07:08:53.043Z,2.67
2022-09-05T07:11:49.660Z,3.20
2022-09-05T07:14:34.167Z,3.45
2022-09-05T07:18:21.473Z,4.10
2022-09-05T07:21:53.939Z,2.80
2022-09-05T07:24:53.652Z,2.80
2022-09-05T07:28:28.511Z,2.75
2022-09-05T07:31:14.123Z,3.25
2022-09-05T07:34:22.066Z,2.80
2022-09-05T07:37:03.072Z,3.15
2022-09-05T07:40:11.355Z,3.65
2022-09-05T07:43:19.075Z,3.00
2022-09-05T07:46:26.884Z,2.75
2022-09-05T07:49:04.351Z,3.30
2022-09-05T07:56:00.828Z,2.72
2022-09-05T07:57:00.913Z,3.03
2022-09-05T07:59:55.414Z,3.40
2022-09-05T08:02:22.007Z,4.60
2022-09-05T08:04:49.455Z,2.90
2022-09-05T08:07:50.035Z,3.05
2022-09-05T08:11:14.498Z,3.20
2022-09-05T08:14:43.504Z,3.30
2022-09-05T08:17:19.077Z,3.45
2022-09-05T08:20:23.365Z,3.80
2022-09-05T08:23:24.468Z,3.97
2022-09-05T08:26:13.993Z,4.12
2022-09-05T08:29:42.701Z,3.67
2022-09-05T08:32:38.174Z,4.25
2022-09-05T08:35:25.715Z,3.95
2022-09-05T08:37:53.812Z,4.10
2022-09-05T08:40:50.816Z,4.20
2022-09-05T08:46:36.584Z,4.20
2022-09-05T08:49:02.137Z,4.20
2022-09-05T08:51:55.582Z,4.40
2022-09-05T08:57:07.371Z,4.12
2022-09-05T09:04:47.541Z,5.10
2022-09-05T09:09:25.253Z,4.68
2022-09-05T09:12:31.466Z,3.90
2022-09-05T09:15:17.999Z,4.97
2022-09-05T09:17:48.695Z,4.05
2022-09-05T09:23:04.837Z,4.37
2022-09-05T09:26:25.430Z,4.70
2022-09-05T09:29:11.726Z,4.50
2022-09-05T09:35:59.374Z,4.82
2022-09-05T09:39:38.150Z,4.85
2022-09-05T09:47:37.893Z,4.60
2022-09-05T09:51:01.033Z,4.43
2022-09-05T09:59:22.007Z,5.18
2022-09-05T10:10:52.847Z,4.53
2022-09-05T10:17:23.433Z,4.20
2022-09-05T10:20:29.475Z,4.40
2022-09-05T10:25:32.007Z,4.87
2022-09-05T10:30:55.791Z,5.20
2022-09-05T10:35:20.965Z,5.53
2022-09-05T10:39:53.276Z,5.28
2022-09-05T10:42:43.425Z,5.20
2022-09-05T10:49:33.394Z,5.65
2022-09-05T10:52:39.885Z,5.82
2022-09-05T10:55:35.301Z,5.65
2022-09-05T11:02:22.307Z,5.28
2022-09-05T11:06:09.251Z,5.25
2022-09-05T11:09:22.999Z,5.80
2022-09-05T11:12:32.140Z,5.35
2022-09-05T11:15:37.829Z,5.65
2022-09-05T11:19:42.714Z,6.10
2022-09-05T11:22:23.248Z,6.03
2022-09-05T11:24:57.281Z,6.05
2022-09-05T11:27:40.047Z,5.57
2022-09-05T11:30:30.197Z,5.37
2022-09-05T11:40:09.799Z,6.03
2022-09-05T11:43:01.395Z,6.15
2022-09-05T11:48:00.144Z,6.97
2022-09-05T11:53:58.059Z,5.47
2022-09-05T11:59:33.779Z,6.00
2022-09-05T12:05:58.700Z,5.95
2022-09-05T12:09:03.913Z,5.70
2022-09-05T12:16:00.640Z,5.50
2022-09-05T12:21:49.366Z,5.47
2022-09-05T12:27:35.895Z,5.47
2022-09-05T12:30:14.459Z,5.15
2022-09-05T12:36:08.578Z,5.00
2022-09-05T12:40:56.666Z,4.85
2022-09-05T12:44:38.011Z,4.97
2022-09-05T12:47:22.318Z,4.45
2022-09-05T12:50:17.201Z,4.93
2022-09-05T12:53:01.193Z,4.55
2022-09-05T12:56:28.255Z,4.82
2022-09-05T13:03:05.713Z,4.43
2022-09-05T13:05:02.124Z,4.37
2022-09-05T13:08:02.434Z,4.53
2022-09-05T13:14:49.437Z,4.80
2022-09-05T13:15:35.371Z,4.97
2022-09-05T13:18:18.151Z,4.62
2022-09-05T13:21:15.470Z,3.97
2022-09-05T13:24:40.701Z,4.85
2022-09-05T13:27:27.392Z,4.35
2022-09-05T13:33:06.001Z,4.95
2022-09-05T13:38:10.674Z,4.85
2022-09-05T13:39:27.480Z,4.93
2022-09-05T13:42:02.845Z,4.95
2022-09-05T13:44:39.666Z,4.70
2022-09-05T13:55:15.293Z,5.00
2022-09-05T13:57:54.303Z,5.10
2022-09-05T14:03:41.666Z,5.55
2022-09-05T14:10:04.774Z,5.72
2022-09-05T14:13:00.585Z,5.82
2022-09-05T14:15:59.969Z,5.53
2022-09-05T14:19:07.360Z,6.03
2022-09-05T14:21:39.523Z,5.97
2022-09-05T14:24:27.929Z,6.55
2022-09-05T14:27:30.340Z,6.25
2022-09-05T14:30:03.923Z,6.03
2022-09-05T14:39:45.207Z,6.50
2022-09-05T14:46:56.776Z,6.50
2022-09-05T14:51:27.973Z,6.45
2022-09-05T14:54:03.384Z,6.15
2022-09-05T15:01:46.232Z,6.65
2022-09-05T15:02:48.284Z,6.93
2022-09-05T15:05:49.422Z,6.32
2022-09-05T15:11:25.310Z,6.15
2022-09-05T15:13:06.753Z,6.87
2022-09-05T15:16:09.255Z,6.00
2022-09-05T15:18:47.541Z,6.32
2022-09-05T15:21:40.408Z,6.40
2022-09-05T15:24:23.074Z,6.35
2022-09-05T15:26:59.866Z,6.53
2022-09-05T15:29:33.770Z,6.50
2022-09-05T15:33:53.397Z,6.68
2022-09-05T15:36:36.959Z,6.22
2022-09-05T15:39:25.746Z,6.65
2022-09-05T15:42:12.009Z,6.85
2022-09-05T15:44:53.174Z,6.55
2022-09-05T15:47:26.549Z,6.68
2022-09-05T15:50:00.852Z,6.60
2022-09-05T15:52:39.538Z,6.78
2022-09-05T15:55:20.631Z,6.62
2022-09-05T15:58:06.235Z,6.90
2022-09-05T16:00:56.355Z,8.40
2022-09-05T16:06:39.075Z,7.40
2022-09-05T16:10:37.062Z,6.75
2022-09-05T16:12:46.518Z,6.62
2022-09-05T16:21:34.304Z,7.00
2022-09-05T16:23:13.669Z,6.78
2022-09-05T16:24:59.121Z,6.93
2022-09-05T16:28:02.550Z,6.62
2022-09-05T16:30:39.428Z,6.53
2022-09-05T16:33:24.550Z,6.68
2022-09-05T16:36:20.518Z,6.43
2022-09-05T16:39:15.128Z,6.95
2022-09-05T16:41:54.942Z,7.20
2022-09-05T16:45:32.013Z,7.45
2022-09-05T16:48:47.227Z,6.62
2022-09-05T16:52:09.141Z,7.70
2022-09-05T16:55:16.309Z,6.93
2022-09-05T16:58:14.322Z,7.43
2022-09-05T17:02:05.683Z,7.37
2022-09-05T17:05:09.940Z,7.37
2022-09-05T17:08:24.181Z,7.53
2022-09-05T17:11:03.680Z,7.55
2022-09-05T17:13:52.796Z,7.95
2022-09-05T17:16:43.721Z,7.78
2022-09-05T17:19:21.524Z,7.72
2022-09-05T17:29:17.570Z,8.38
2022-09-05T17:35:17.856Z,8.57
2022-09-05T17:38:49.417Z,7.50
2022-09-05T17:44:17.651Z,9.05
2022-09-05T17:47:36.286Z,8.48
2022-09-05T17:51:04.597Z,8.30
2022-09-05T17:54:18.055Z,8.25
2022-09-05T17:56:45.888Z,8.40
2022-09-05T17:59:45.468Z,8.80
2022-09-05T18:02:51.079Z,8.43
2022-09-05T18:06:00.378Z,8.43
2022-09-05T18:11:01.341Z,8.82
2022-09-05T18:14:03.474Z,7.90
2022-09-05T18:17:36.482Z,9.52
2022-09-05T18:21:55.014Z,8.98
2022-09-05T18:24:49.111Z,9.15
2022-09-05T18:28:04.525Z,8.57
2022-09-05T18:33:55.515Z,8.75
2022-09-05T18:36:33.833Z,9.43
2022-09-05T18:41:13.748Z,9.98
2022-09-05T18:44:20.513Z,10.63
2022-09-05T18:46:55.736Z,10.20
2022-09-05T18:50:24.078Z,11.20
2022-09-05T18:53:09.911Z,11.50
2022-09-05T18:57:26.487Z,9.90
2022-09-05T19:00:05.020Z,7.65
2022-09-05T19:02:58.533Z,7.62
2022-09-05T19:06:35.155Z,8.10
2022-09-05T19:09:19.649Z,7.12
2022-09-05T19:12:31.798Z,7.03
2022-09-05T19:15:08.551Z,6.30
2022-09-05T19:17:47.301Z,6.25
2022-09-05T19:20:31.401Z,5.90
2022-09-05T19:23:12.887Z,5.70
2022-09-05T19:25:45.748Z,5.65
2022-09-05T19:36:46.444Z,5.95
2022-09-05T19:37:22.704Z,5.90
2022-09-05T19:38:16.044Z,6.55
2022-09-05T19:47:30.377Z,6.65
2022-09-05T19:47:40.246Z,6.00
2022-09-05T19:50:10.434Z,6.40
2022-09-05T19:52:39.505Z,6.87
2022-09-05T19:55:28.034Z,7.25
2022-09-05T19:58:18.978Z,7.32
2022-09-05T20:01:00.728Z,7.40
2022-09-05T20:03:35.467Z,7.43
2022-09-05T20:06:30.954Z,7.68
2022-09-05T20:09:21.828Z,7.43
2022-09-05T20:11:57.887Z,7.70
2022-09-05T20:14:31.600Z,8.73
2022-09-05T20:17:33.652Z,8.57
2022-09-05T20:20:21.698Z,8.52
2022-09-05T20:23:01.320Z,9.25
2022-09-05T20:25:46.377Z,7.82
2022-09-05T20:28:24.078Z,7.25
2022-09-05T20:31:09.336Z,7.65
2022-09-05T20:35:51.603Z,6.90
2022-09-05T20:43:24.766Z,6.45
2022-09-05T20:44:00.640Z,6.20
2022-09-05T20:52:42.376Z,6.87
2022-09-05T20:54:20.153Z,7.43
2022-09-05T20:56:06.068Z,8.52
2022-09-05T20:58:36.384Z,9.27
2022-09-05T21:01:41.584Z,9.30
2022-09-05T21:04:08.178Z,8.52
2022-09-05T21:06:40.536Z,8.85
2022-09-05T21:09:25.625Z,8.85
2022-09-05T21:11:58.179Z,8.82
2022-09-05T21:14:28.390Z,8.88
2022-09-05T21:17:04.863Z,8.68
2022-09-05T21:19:53.402Z,8.02
2022-09-05T21:22:43.450Z,8.00
2022-09-05T21:25:43.610Z,8.38
2022-09-05T21:28:32.551Z,7.97
2022-09-05T21:31:12.229Z,7.85
2022-09-05T21:33:45.264Z,7.72
2022-09-05T21:36:15.081Z,7.87
2022-09-05T21:38:43.238Z,8.82
2022-09-05T21:41:10.766Z,8.60
2022-09-05T21:47:35.132Z,8.57
2022-09-05T21:48:14.285Z,8.45
2022-09-05T21:50:48.807Z,8.23
2022-09-05T21:56:41.565Z,7.87
2022-09-05T21:59:27.858Z,8.85
2022-09-05T22:02:06.359Z,8.32
2022-09-05T22:04:40.051Z,8.10
2022-09-05T22:07:14.940Z,8.43
2022-09-05T22:09:41.497Z,8.18
2022-09-05T22:12:26.960Z,8.48
2022-09-05T22:14:57.766Z,8.20
2022-09-05T22:17:38.782Z,8.55
2022-09-05T22:20:09.801Z,8.38
2022-09-05T22:22:39.378Z,7.72
2022-09-05T22:25:14.558Z,7.30
2022-09-05T22:27:43.684Z,7.53
2022-09-05T22:30:12.850Z,7.85
2022-09-05T22:32:39.682Z,7.50
2022-09-05T22:35:28.605Z,7.78
2022-09-05T22:38:56.141Z,8.75
2022-09-05T22:41:29.942Z,9.20
2022-09-05T22:43:57.632Z,7.82
2022-09-05T22:46:24.161Z,8.02
2022-09-05T22:48:50.748Z,7.35
2022-09-05T22:51:17.358Z,7.62
2022-09-05T22:53:43.985Z,7.45
2022-09-05T22:56:10.636Z,7.20
2022-09-05T22:58:44.753Z,8.55
2022-09-05T23:01:12.060Z,7.53
2022-09-05T23:03:38.574Z,7.18
2022-09-05T23:06:09.724Z,7.47
2022-09-05T23:08:36.270Z,7.37
2022-09-05T23:11:12.264Z,6.80
2022-09-05T23:13:39.667Z,8.25
2022-09-05T23:16:06.721Z,8.65
2022-09-05T23:18:33.691Z,9.10
2022-09-05T23:21:08.833Z,8.65
2022-09-05T23:23:40.518Z,9.65
2022-09-05T23:26:10.675Z,9.23
2022-09-05T23:28:42.718Z,9.52
2022-09-05T23:31:11.416Z,8.32
2022-09-05T23:33:41.149Z,9.38
2022-09-05T23:36:13.026Z,7.50
2022-09-05T23:38:42.045Z,6.90
2022-09-05T23:41:12.489Z,7.55
2022-09-05T23:43:39.010Z,7.93
2022-09-05T23:46:06.123Z,8.07
2022-09-05T23:48:32.975Z,9.00
2022-09-05T23:51:12.102Z,9.57
2022-09-05T23:53:39.076Z,9.93
2022-09-05T23:56:08.579Z,7.45
2022-09-05T23:58:36.547Z,7.35
